createdAt,value
2024-03-03T00:03:36.914Z,2.75
2024-03-03T00:07:19.300Z,2.20
2024-03-03T00:11:01.233Z,2.55
2024-03-03T00:14:45.006Z,2.85
2024-03-03T00:18:26.811Z,2.70
2024-03-03T00:22:09.534Z,2.92
2024-03-03T00:25:51.340Z,3.38
2024-03-03T00:29:33.307Z,2.85
2024-03-03T00:33:16.091Z,2.78
2024-03-03T00:36:57.994Z,2.63
2024-03-03T00:44:38.960Z,2.70
2024-03-03T00:48:20.752Z,3.13
2024-03-03T00:52:02.727Z,2.53
2024-03-03T00:55:48.433Z,2.30
2024-03-03T00:59:30.307Z,2.65
2024-03-03T01:03:12.163Z,3.25
2024-03-03T01:06:54.014Z,2.97
2024-03-03T01:10:35.865Z,3.40
2024-03-03T01:14:17.692Z,3.10
2024-03-03T01:17:59.466Z,2.85
2024-03-03T01:21:41.761Z,3.00
2024-03-03T01:25:23.902Z,2.85
2024-03-03T01:29:05.796Z,3.08
2024-03-03T01:32:47.661Z,2.80
2024-03-03T01:36:29.500Z,2.90
2024-03-03T01:40:13.832Z,3.33
2024-03-03T01:43:55.785Z,4.28
2024-03-03T01:47:38.892Z,3.00
2024-03-03T01:51:21.359Z,3.85
2024-03-03T01:55:04.141Z,3.95
2024-03-03T01:58:47.068Z,3.03
2024-03-03T02:02:28.935Z,3.40
2024-03-03T02:06:10.975Z,3.33
2024-03-03T02:09:53.286Z,3.20
2024-03-03T02:13:35.461Z,3.47
2024-03-03T02:17:17.606Z,3.45
2024-03-03T02:20:59.476Z,3.10
2024-03-03T02:24:41.372Z,3.80
2024-03-03T02:28:26.057Z,3.47
2024-03-03T02:32:07.963Z,3.17
2024-03-03T02:35:49.847Z,3.17
2024-03-03T02:39:31.669Z,3.50
2024-03-03T02:43:13.502Z,4.30
2024-03-03T02:46:55.309Z,3.50
2024-03-03T02:50:37.209Z,3.00
2024-03-03T02:54:19.036Z,3.05
2024-03-03T02:58:00.899Z,3.42
2024-03-03T03:01:42.803Z,2.92
2024-03-03T03:05:24.670Z,3.15
2024-03-03T03:09:06.831Z,3.13
2024-03-03T03:12:48.772Z,2.80
2024-03-03T03:16:30.577Z,3.28
2024-03-03T03:20:12.545Z,3.40
2024-03-03T03:23:54.401Z,3.35
2024-03-03T03:27:36.335Z,2.97
2024-03-03T03:31:18.176Z,4.40
2024-03-03T03:35:00.002Z,4.13
2024-03-03T03:38:41.814Z,3.15
2024-03-03T03:42:23.704Z,3.65
2024-03-03T03:46:05.899Z,3.30
2024-03-03T03:49:47.787Z,3.30
2024-03-03T03:53:29.577Z,3.08
2024-03-03T03:57:11.364Z,4.15
2024-03-03T04:00:53.258Z,3.10
2024-03-03T04:04:35.958Z,3.20
2024-03-03T04:08:18.112Z,4.75
2024-03-03T04:11:59.987Z,3.42
2024-03-03T04:15:41.784Z,3.08
2024-03-03T04:19:23.762Z,4.15
2024-03-03T04:23:05.579Z,3.58
2024-03-03T04:26:47.456Z,3.75
2024-03-03T04:30:29.533Z,3.40
2024-03-03T04:34:12.062Z,3.40
2024-03-03T04:37:53.886Z,3.13
2024-03-03T04:41:35.733Z,4.00
2024-03-03T04:45:17.566Z,3.60
2024-03-03T04:48:59.488Z,3.55
2024-03-03T04:52:41.346Z,3.38
2024-03-03T04:56:28.095Z,3.45
2024-03-03T05:00:10.428Z,2.90
2024-03-03T05:03:52.463Z,2.95
2024-03-03T05:07:34.855Z,3.15
2024-03-03T05:11:17.860Z,3.42
2024-03-03T05:14:59.835Z,4.25
2024-03-03T05:18:42.569Z,3.90
2024-03-03T05:22:24.412Z,3.08
2024-03-03T05:26:06.248Z,3.35
2024-03-03T05:29:48.035Z,3.63
2024-03-03T05:33:29.918Z,3.60
2024-03-03T05:37:12.352Z,3.42
2024-03-03T05:40:54.275Z,4.15
2024-03-03T05:44:36.780Z,4.55
2024-03-03T05:48:18.655Z,4.10
2024-03-03T05:52:01.672Z,4.40
2024-03-03T05:55:43.575Z,4.38
2024-03-03T05:59:25.382Z,5.45
2024-03-03T06:03:08.131Z,8.95
2024-03-03T06:06:50.274Z,8.68
2024-03-03T06:10:32.182Z,4.65
2024-03-03T06:14:15.963Z,3.65
2024-03-03T06:17:57.979Z,2.97
2024-03-03T06:21:39.870Z,3.47
2024-03-03T06:25:22.069Z,3.42
2024-03-03T06:29:07.055Z,3.85
2024-03-03T06:32:49.335Z,3.30
2024-03-03T06:36:31.222Z,3.35
2024-03-03T06:40:13.197Z,3.85
2024-03-03T06:43:56.219Z,4.43
2024-03-03T06:47:38.948Z,3.03
2024-03-03T06:51:20.807Z,3.35
2024-03-03T06:55:03.278Z,3.20
2024-03-03T06:58:46.517Z,3.83
2024-03-03T07:02:48.324Z,3.55
2024-03-03T07:06:30.980Z,3.22
2024-03-03T07:10:12.977Z,3.95
2024-03-03T07:13:54.855Z,4.82
2024-03-03T07:17:36.682Z,3.35
2024-03-03T07:21:18.502Z,3.05
2024-03-03T07:25:00.328Z,2.80
2024-03-03T07:28:42.149Z,2.40
2024-03-03T07:32:24.135Z,13.25
2024-03-03T07:36:06.928Z,16.83
2024-03-03T07:39:48.972Z,16.88
2024-03-03T07:43:31.551Z,7.50
2024-03-03T07:47:13.443Z,8.63
2024-03-03T07:50:56.062Z,15.18
2024-03-03T07:54:38.498Z,5.25
2024-03-03T07:58:20.493Z,5.35
2024-03-03T08:02:02.484Z,3.83
2024-03-03T08:05:44.489Z,6.35
2024-03-03T08:09:26.395Z,3.83
2024-03-03T08:13:09.632Z,3.53
2024-03-03T08:16:51.824Z,4.43
2024-03-03T08:20:33.608Z,5.05
2024-03-03T08:24:15.421Z,8.52
2024-03-03T08:28:06.483Z,4.82
2024-03-03T08:31:48.359Z,4.63
2024-03-03T08:35:30.271Z,4.95
2024-03-03T08:39:12.788Z,2.70
2024-03-03T08:42:55.502Z,2.95
2024-03-03T08:46:37.504Z,3.03
2024-03-03T08:50:19.402Z,3.70
2024-03-03T08:54:01.643Z,3.22
2024-03-03T08:57:43.523Z,3.47
2024-03-03T09:01:25.508Z,3.10
2024-03-03T09:05:08.148Z,3.50
2024-03-03T09:08:50.009Z,3.15
2024-03-03T09:12:32.116Z,2.88
2024-03-03T09:16:14.207Z,2.97
2024-03-03T09:19:56.122Z,3.17
2024-03-03T09:23:39.580Z,2.40
2024-03-03T09:27:22.704Z,2.55
2024-03-03T09:31:05.446Z,2.83
2024-03-03T09:34:47.487Z,3.13
2024-03-03T09:38:29.299Z,2.85
2024-03-03T09:42:11.249Z,2.30
2024-03-03T09:45:53.150Z,2.67
2024-03-03T09:49:36.261Z,2.60
2024-03-03T09:53:19.208Z,2.40
2024-03-03T09:57:04.365Z,2.63
2024-03-03T10:00:47.593Z,2.30
2024-03-03T10:04:30.709Z,2.88
2024-03-03T10:08:17.645Z,2.10
2024-03-03T10:12:00.477Z,2.35
2024-03-03T10:15:45.980Z,2.28
2024-03-03T10:19:30.950Z,2.30
2024-03-03T10:23:25.967Z,2.28
2024-03-03T10:27:19.152Z,2.20
2024-03-03T10:31:16.620Z,2.20
2024-03-03T10:34:58.751Z,2.25
2024-03-03T10:38:40.601Z,1.90
2024-03-03T10:42:23.213Z,1.65
2024-03-03T10:46:05.214Z,1.52
2024-03-03T10:49:47.297Z,2.00
2024-03-03T10:53:32.553Z,1.77
2024-03-03T10:57:18.131Z,1.80
2024-03-03T11:01:01.276Z,2.17
2024-03-03T11:04:44.049Z,1.83
2024-03-03T11:08:26.810Z,2.00
2024-03-03T11:12:16.493Z,1.60
2024-03-03T11:16:03.989Z,2.17
2024-03-03T11:19:49.858Z,1.60
2024-03-03T11:23:53.002Z,1.50
2024-03-03T11:27:39.795Z,1.20
2024-03-03T11:31:21.723Z,1.30
2024-03-03T11:35:05.069Z,1.73
2024-03-03T11:38:47.417Z,1.30
2024-03-03T11:42:41.624Z,2.00
2024-03-03T11:46:51.170Z,1.40
2024-03-03T11:50:33.105Z,1.50
2024-03-03T11:54:15.821Z,1.38
2024-03-03T11:58:00.647Z,0.73
2024-03-03T12:01:48.304Z,1.08
2024-03-03T12:05:30.395Z,1.30
2024-03-03T12:09:12.547Z,1.10
2024-03-03T12:12:56.634Z,0.80
2024-03-03T12:16:38.778Z,0.90
2024-03-03T12:20:22.521Z,1.10
2024-03-03T12:24:15.184Z,1.00
2024-03-03T12:27:59.060Z,0.88
2024-03-03T12:31:41.046Z,0.80
2024-03-03T12:35:23.041Z,0.50
2024-03-03T12:39:08.817Z,0.40
2024-03-03T12:46:33.656Z,0.47
2024-03-03T12:50:17.043Z,0.40
2024-03-03T12:53:59.122Z,0.60
2024-03-03T12:57:42.129Z,0.60
2024-03-03T13:01:24.524Z,0.50
2024-03-03T13:05:14.758Z,0.60
2024-03-03T13:08:57.117Z,0.50
2024-03-03T13:12:38.930Z,0.45
2024-03-03T13:16:23.185Z,0.50
2024-03-03T13:20:05.620Z,0.60
2024-03-03T13:23:47.434Z,0.47
2024-03-03T13:27:32.939Z,0.60
2024-03-03T13:31:14.838Z,0.63
2024-03-03T13:34:56.775Z,0.82
2024-03-03T13:38:38.727Z,0.45
2024-03-03T13:42:20.684Z,0.50
2024-03-03T13:46:02.725Z,0.60
2024-03-03T13:49:44.583Z,0.47
2024-03-03T13:53:26.906Z,0.40
2024-03-03T13:57:08.775Z,0.70
2024-03-03T14:00:50.740Z,0.77
2024-03-03T14:04:32.765Z,0.57
2024-03-03T14:08:15.198Z,0.88
2024-03-03T14:11:57.980Z,0.32
2024-03-03T14:15:39.901Z,0.50
2024-03-03T14:19:21.709Z,0.68
2024-03-03T14:23:04.632Z,0.82
2024-03-03T14:26:46.564Z,0.60
2024-03-03T14:30:28.352Z,0.47
2024-03-03T14:34:10.137Z,0.47
2024-03-03T14:37:52.064Z,0.40
2024-03-03T14:41:34.222Z,0.40
2024-03-03T14:45:16.027Z,0.35
2024-03-03T14:48:57.900Z,0.50
2024-03-03T14:52:39.820Z,0.40
2024-03-03T14:56:21.638Z,0.50
2024-03-03T15:00:04.510Z,0.50
2024-03-03T15:03:46.585Z,0.47
2024-03-03T15:07:28.631Z,0.40
2024-03-03T15:11:10.556Z,0.47
2024-03-03T15:14:52.438Z,0.43
2024-03-03T15:18:34.272Z,0.35
2024-03-03T15:22:16.228Z,0.60
2024-03-03T15:25:58.388Z,0.63
2024-03-03T15:29:43.546Z,0.30
2024-03-03T15:33:29.716Z,0.75
2024-03-03T15:37:11.713Z,0.70
2024-03-03T15:40:53.631Z,0.70
2024-03-03T15:44:35.905Z,0.70
2024-03-03T15:48:17.849Z,0.60
2024-03-03T15:52:03.236Z,0.63
2024-03-03T15:55:45.258Z,0.50
2024-03-03T15:59:27.119Z,0.65
2024-03-03T16:03:08.967Z,0.60
2024-03-03T16:06:50.850Z,1.23
2024-03-03T16:10:32.712Z,0.50
2024-03-03T16:14:15.963Z,0.88
2024-03-03T16:17:59.312Z,0.70
2024-03-03T16:21:41.240Z,0.60
2024-03-03T16:25:23.185Z,0.85
2024-03-03T16:29:05.088Z,0.60
2024-03-03T16:32:46.882Z,0.98
2024-03-03T16:36:28.782Z,0.77
2024-03-03T16:40:11.544Z,0.68
2024-03-03T16:43:53.484Z,0.80
2024-03-03T16:47:35.395Z,0.68
2024-03-03T16:51:17.226Z,0.80
2024-03-03T16:54:59.063Z,0.70
2024-03-03T16:58:43.097Z,0.60
2024-03-03T17:02:25.713Z,0.93
2024-03-03T17:06:07.699Z,1.00
2024-03-03T17:09:50.783Z,0.90
2024-03-03T17:13:32.743Z,1.00
2024-03-03T17:17:14.594Z,0.90
2024-03-03T17:20:56.720Z,0.93
2024-03-03T17:24:38.553Z,1.40
2024-03-03T17:28:20.427Z,1.10
2024-03-03T17:32:02.698Z,0.90
2024-03-03T17:35:44.637Z,1.20
2024-03-03T17:39:26.452Z,1.38
2024-03-03T17:43:08.377Z,1.33
2024-03-03T17:46:50.234Z,1.80
2024-03-03T17:50:32.115Z,2.28
2024-03-03T17:54:18.524Z,2.35
2024-03-03T17:58:00.409Z,2.78
2024-03-03T18:01:43.571Z,3.35
2024-03-03T18:05:25.466Z,3.47
2024-03-03T18:09:09.159Z,3.03
2024-03-03T18:12:51.005Z,2.85
2024-03-03T18:16:33.828Z,1.95
2024-03-03T18:20:17.633Z,2.13
2024-03-03T18:23:59.410Z,2.40
2024-03-03T18:27:41.413Z,3.17
2024-03-03T18:31:23.475Z,4.45
2024-03-03T18:35:08.082Z,3.63
2024-03-03T18:38:50.487Z,3.72
2024-03-03T18:42:35.101Z,2.25
2024-03-03T18:46:17.027Z,2.55
2024-03-03T18:49:58.932Z,2.22
2024-03-03T18:53:40.726Z,2.25
2024-03-03T18:57:22.541Z,2.60
2024-03-03T19:01:04.564Z,2.60
2024-03-03T19:04:46.449Z,2.65
2024-03-03T19:08:28.241Z,3.50
2024-03-03T19:12:10.253Z,3.25
2024-03-03T19:15:52.111Z,3.67
2024-03-03T19:19:34.638Z,4.43
2024-03-03T19:23:16.640Z,4.32
2024-03-03T19:26:58.650Z,4.82
2024-03-03T19:30:40.429Z,3.42
2024-03-03T19:34:22.759Z,4.15
2024-03-03T19:38:04.751Z,3.20
2024-03-03T19:41:47.798Z,2.92
2024-03-03T19:45:29.605Z,3.22
2024-03-03T19:49:13.823Z,3.95
2024-03-03T19:52:55.682Z,2.80
2024-03-03T19:56:37.553Z,2.63
2024-03-03T20:00:20.067Z,2.50
2024-03-03T20:04:05.956Z,2.08
2024-03-03T20:07:47.856Z,2.40
2024-03-03T20:11:29.844Z,2.20
2024-03-03T20:15:12.101Z,2.08
2024-03-03T20:18:55.035Z,2.10
2024-03-03T20:22:37.427Z,1.92
2024-03-03T20:26:19.510Z,4.53
2024-03-03T20:30:01.309Z,4.47
2024-03-03T20:33:43.224Z,3.85
2024-03-03T20:37:25.662Z,3.25
2024-03-03T20:41:07.715Z,3.13
2024-03-03T20:44:49.580Z,2.80
2024-03-03T20:48:31.571Z,3.25
2024-03-03T20:52:14.596Z,3.20
2024-03-03T20:55:57.246Z,4.43
2024-03-03T20:59:39.245Z,4.60
2024-03-03T21:03:21.397Z,3.85
2024-03-03T21:07:03.834Z,4.18
2024-03-03T21:10:45.801Z,3.63
2024-03-03T21:14:27.992Z,4.30
2024-03-03T21:18:10.633Z,4.10
2024-03-03T21:21:52.523Z,3.97
2024-03-03T21:25:34.459Z,3.72
2024-03-03T21:29:16.332Z,3.95
2024-03-03T21:32:58.202Z,4.95
2024-03-03T21:36:39.985Z,4.50
2024-03-03T21:40:22.353Z,3.22
2024-03-03T21:44:04.570Z,3.90
2024-03-03T21:47:46.480Z,3.85
2024-03-03T21:51:30.004Z,3.95
2024-03-03T21:55:12.024Z,4.30
2024-03-03T21:58:54.004Z,4.38
2024-03-03T22:02:35.975Z,3.70
2024-03-03T22:06:17.838Z,2.83
2024-03-03T22:10:00.357Z,3.05
2024-03-03T22:13:42.255Z,3.05
2024-03-03T22:17:24.130Z,3.25
2024-03-03T22:21:06.240Z,3.72
2024-03-03T22:24:48.107Z,3.35
2024-03-03T22:28:29.991Z,3.25
2024-03-03T22:32:11.847Z,4.03
2024-03-03T22:35:53.644Z,3.42
2024-03-03T22:39:36.434Z,3.42
2024-03-03T22:43:18.738Z,3.30
2024-03-03T22:47:00.712Z,3.08
2024-03-03T22:50:42.875Z,3.38
2024-03-03T22:54:24.749Z,4.30
2024-03-03T22:58:06.612Z,3.08
2024-03-03T23:01:48.547Z,3.47
2024-03-03T23:05:30.392Z,2.58
2024-03-03T23:09:13.776Z,3.00
2024-03-03T23:12:55.626Z,2.72
2024-03-03T23:16:39.194Z,3.25
2024-03-03T23:20:21.789Z,2.78
2024-03-03T23:24:04.548Z,3.42
2024-03-03T23:27:46.789Z,3.42
2024-03-03T23:31:29.383Z,4.10
2024-03-03T23:35:11.254Z,3.22
2024-03-03T23:38:53.947Z,2.95
2024-03-03T23:42:36.069Z,3.35
2024-03-03T23:46:18.038Z,3.15
2024-03-03T23:49:59.868Z,3.13
2024-03-03T23:53:41.704Z,3.17
2024-03-03T23:57:23.582Z,2.90
